[Every 1st WED of the month | 1730 - 2030z] EPWA <-> EDDM City Shuttle

Zu Eventkalender hinzugefügt: 36 Daten

Samy Greve

874505
ATD - Prüfer
RG München - Event
RG München - NAV
RG München - Mentor
Warsaw_Munich_shuttle_sommer.png


Lust auf Abwechslung?
Lust auf durchgehend ATC?
Dann haben wir genau das richtige für euch!

Wir möchten euch in Kooperation mit der vACC Poland und VATsim Germany an jedem ersten Mittwoch des Monats zum City Link zwischen den Städten Warschau (EPWA) und München (EDDM) einladen. In der Zeit von 1730 - 2030z könnt ihr auf beiden Airports sowie Enroute omplette ATC Abdeckung genießen.

Egal ob TurboProp, Bizz Jet oder Airliner: Diese Strecke eignet sich für jeden Flugzeugtyp.

Wir freuen uns euch alle 4 Wochen auf der Strecke begrüßen zu dürfen!

Recommended Routing:

EDDM-EPWA BIBAG Y133 BEPAS N871 LETNA DCT ARTUP DCT LAGAR DCT OKENO Q277 AGAVA
EPWA-EDDM SOXER N869 TOMTI DCT ASTEL DCT IPRUX DCT NIRGO T108 LANDU

EDDM Pilot Briefing:



EDDM Charts:



EPWA Pilot Briefing & Charts:

 
Zuletzt bearbeitet:

Samy Greve

874505
ATD - Prüfer
RG München - Event
RG München - NAV
RG München - Mentor
ru8ccb6e.png


Heute Abend laden wir zum ersten Mal zum monatlichen Shuttle zwischen Warschau und München ein. Es erwartet euch an beiden Airports volle Abdeckung sowie komplette Enrouteabdeckung :D

Recommended Routings:

EDDM-EPWA BIBAG Y133 BEPAS N871 LETNA DCT ARTUP DCT LAGAR DCT OKENO Q277 AGAVA
EPWA-EDDM SOXER N869 TOMTI DCT ASTEL DCT IPRUX DCT NIRGO T108 ARBAX

Wettermäßig schaut es auch interessant aus:

EPWA 020830Z 0209/0309 13010KT 9999 BKN020 PROB40 TEMPO 0220/0306 BKN010
EDDM 020500Z 0206/0312 08007KT 9000 BKN006 PROB30 TEMPO 0206/0208 4000 BR BECMG 0209/0211 BKN012 BECMG 0213/0215 BKN020 BECMG 0216/0218 25003KT TEMPO 0222/0302 BKN010 PROB30 TEMPO 0303/0309 2000 -SN SCT008 BKN012 BECMG 0309/0311 16005KT
 
Zuletzt bearbeitet:

Samy Greve

874505
ATD - Prüfer
RG München - Event
RG München - NAV
RG München - Mentor
ru8ccb6e.png


Es ist wieder soweit! Der erste Shuttle in Dezember war ein Erfolg und wir würden dort gerne wieder anknüpfen! :)
Zwischen 1830 und 2130 Zulu ist die Strecke und die beiden Airports München und Warschau wieder voll besetzt für euch - zusätzlich wird Prag Radar die Enroute Strecke besetzen.

Recommended Routings:

EDDM-EPWA BIBAG Y133 BEPAS N871 LETNA DCT ARTUP DCT LAGAR DCT OKENO Q277 AGAVA
EPWA-EDDM SOXER N869 TOMTI DCT ASTEL DCT IPRUX DCT NIRGO T108 ARBAX

Passend zur Winterzeit wird hier und dort auch Schnee erwartet:

EDDM 060500Z 0606/0712 25006KT 3000 -SN BKN004 PROB30 TEMPO 0606/0609 1000 SN PROB30 TEMPO 0609/0624 6000 BKN010 BECMG 0700/0703 8000 BKN020
EPWA 060830Z 0609/0709 19005KT 9999 BKN010 BKN015 BECMG 0614/0617 11010KT BECMG 0618/0621 -RA BKN005 OVC008 TEMPO 0620/0709 3000 RASN BR BKN003 BECMG 0622/0701 18010KT

PS: Zusätzlich haben wir heute auch noch eine Tower CPT in München. Also besuchen lohnt sich auf jeden Fall! Wir freuen uns auf heute Abend!
 

Samy Greve

874505
ATD - Prüfer
RG München - Event
RG München - NAV
RG München - Mentor
ru8ccb6e.png


Es ist der erste Mittwoch des Februars und wir laden euch herzlich zum CityShuttle zwischen Warschau <-> München ein! Ab 1830Z sind beide Airports wieder top besetzt und bietet euch eine ATC Abdeckung von Ground zu Ground!

Recommended Routings:

EDDM-EPWA BIBAG Y133 BEPAS N871 LETNA DCT ARTUP DCT LAGAR DCT OKENO Q277 AGAVA
EPWA-EDDM SOXER N869 TOMTI DCT ASTEL DCT IPRUX DCT NIRGO T108 ARBAX

EDDM TAF 031100Z 0312/0418 17004KT 9999 SCT020 BKN040 TEMPO 0312/0318 RA BECMG 0312/0314 24010KT BECMG 0314/0316 25020G30KT PROB40 TEMPO 0321/0402 27020G40KT BECMG 0402/040524013KT BECMG 0411/0413 28006KT

EPWA TAF 031329Z 0313/0412 VRB03KT 2000 BR BKN010 BKN013 TEMPO 0313/0314 1200 -DZ BR BKN005 BKN008 BECMG 0315/0318 19010KT TEMPO 0315/0317 1200 DZ BR OVC004 OVC007 BECMG 0321/0324 VRB02KT 3000 -RA BR BKN005 BKN008 TEMPO 0321/0408 1500RA BR BKN002 BECMG 0405/0408 35010KT 5000 -RASN BKN010 BKN014 TEMPO 0408/0412 2500 SNRA BKN005 BKN007 PROB40 TEMPO 0409/0412 1100 SN BKN003

Bis heute Abend!
 
Zuletzt bearbeitet:

Samy Greve

874505
ATD - Prüfer
RG München - Event
RG München - NAV
RG München - Mentor
ru8ccb6e.png


Willkommen im März! Der erste Mittwoch im Monat bedeutet auch wieder "Cross the Border" zwischen Warschau <-> München. Ab 1830Z sind beide Airports wieder komplett für euch besetzt und bieten euch eine durchgehende ATC Abdeckung von Ground zu Ground - wir freuen uns auf heute Abend und euren Besuch!!

Recommended Routings:

EDDM-EPWA BIBAG Y133 BEPAS N871 LETNA DCT ARTUP DCT LAGAR DCT OKENO Q277 AGAVA
EPWA-EDDM SOXER N869 TOMTI DCT ASTEL DCT IPRUX DCT NIRGO T108 ARBAX

EDDM 030500Z 0306/0412 20003KT CAVOK BECMG 0315/0317 10005KT BECMG 0322/0324 23005KT BECMG 0410/0412 26010KT
EPWA 030830Z 0309/0409 22005KT 0500 FG OVC002 BECMG 0309/0310 0800 FG BECMG 0310/0312 CAVOK BECMG 0322/0324 4000 BR BKN005 PROB40 0403/0407 2000 BR
 

Maik Spaeth

1452697
RG München - Event
ru8ccb6e.png

Willkommen im April! Nicht nur unser Shuttle ist zurück- sondern auch der Schnee.
Ab 1830Z sind beide Airports wieder komplett für euch besetzt und bieten euch eine durchgehende ATC Abdeckung - Wir freuen uns auf euren Besuch!


EDDM-EPWA BIBAG Y133 BEPAS N871 LETNA DCT ARTUP DCT LAGAR DCT OKENO Q277 AGAVA
EPWA-EDDM SOXER N869 TOMTI ASTEL IPRUX NIRGO T108 LANDU

EDDM TAF:
0718/0721 1400 SN BKN008 TEMPO 0721/0802 1200 SHSN BKN008 BKN015TCU

EPWA TAF:
0708/0719 27016G26KT 4500 SHSNRA SCT014 BKN030CB PROB40

Wir freuen uns auf euch!
 

Samy Greve

874505
ATD - Prüfer
RG München - Event
RG München - NAV
RG München - Mentor
Warsaw_Munich_shuttle_sommer.png


Willkommen im Mai! Erster Mittwoch im Mai bedeutet wieder Shuttle zwischen Warschau und München! Ab 1730 Zulu ist die komplette Strecke, sowie beide Flughäfen mit voller ATC Abdeckung für euch da und freut sich auf euren Besuch!

EDDM-EPWA BIBAG Y133 BEPAS DCT LEGAZ DCT LAGAR DCT OKENO Q277 AGAVA
EPWA-EDDM SOXER N869 TOMTI DCT ASTEL DCT IPRUX DCT NIRGO T108 LANDU

EDDM TAF:
050550Z 0506/0612 28010KT 9999 SCT020 BKN030 TEMPO 0506/0507 RA BKN012 BECMG 0509/0511 26015G25KT PROB30 TEMPO 0510/0518 SHRA BKN030CB TEMPO 0512/0516 27025G40KT BECMG 0517/0519 24007KT BECMG

EPWA TAF:
050530Z 0506/0606 20008KT 9999 SCT045 PROB40 TEMPO 0506/0511 23015G25KT BKN030CB TEMPO 0511/0520 24016G28KT 4000 SHRA BKN012 BKN025CB BECMG 0518/0521 26013KT PROB40 TEMPO 0520/0606 27018G29KT SCT030CB

Wir freuen uns auf euch!
 

Maik Spaeth

1452697
RG München - Event
Warsaw_Munich_shuttle_sommer.png
Endlich Sommer! Erster Mittwoch im Juni. Zeit wieder für ein Shuttle zwichen Warschau und München. Ab 1930 local ist die gesamte Strecke und beide Flughäfen voll besetzt. Nutzt die Chance für einen entspannten Flug mit durchgehendem ATC. Kommt vorbei - egal ob ihr in EDDM oder EPWA startet. Wir freuen uns auf euch.

EDDM-EPWA BIBAG Y133 BEPAS DCT LEGAZ DCT LAGAR DCT OKENO Q277 AGAVA
EPWA-EDDM SOXER N869 TOMTI DCT ASTEL DCT IPRUX DCT NIRGO T108 LANDU

TAF: EDDM 020500Z 0206/0312 VRB03KT CAVOK TEMPO 0211/0217 07005KT BECMG 0308/0310 09005KT
TAF: EPWA 020530Z 0206/0306 10006KT CAVOK

Bis heute Abend.
 

Maik Spaeth

1452697
RG München - Event
Warsaw_Munich_shuttle_sommer.png
Willkommen im Juli. Endlich wieder ein Shuttle zwichen den beiden Städten München und Warschau. ab 1930 Uhr local erwartet euch durchgehender ATC Service zwichen EPWA und EDDM denn beide Airports sind komplett besetzt. Also Nutzt die Chance und genießt ATC Service ohne Unterbrechung!

EDDM-EPWA: BIBAG Y133 BEPAS DCT LEGAZ DCT LAGAR DCT OKENO Q277 AGAVA
EPWA-EDDM: SOXER N869 TOMTI DCT ASTEL DCT IPRUX DCT NIRGO T108 LANDU

TAF: EDDM 070500Z 0706/0812 26006KT 9999 BKN008 BECMG 0706/0709 06006KT BKN030 BECMG 0719/0721 VRB03KT BECMG 0806/0808 32005KT
TAF: EPWA 070530Z 0706/0806 13010KT CAVOK BECMG 0722/0801 VRB02KT

Bis heute Abend - wir freuen uns auf euch!
 

Samy Greve

874505
ATD - Prüfer
RG München - Event
RG München - NAV
RG München - Mentor
Warsaw_Munich_shuttle_sommer.png


Der August ist da! Erster Mittwoch im August bedeutet wieder Shuttle zwischen Warschau und München! Ab 1730 Zulu ist die komplette Strecke, sowie beide Flughäfen mit voller ATC Abdeckung für euch da und freut sich auf euren Besuch!

EDDM-EPWA BIBAG Y133 BEPAS DCT LEGAZ DCT LAGAR DCT OKENO Q277 AGAVA
EPWA-EDDM SOXER N869 TOMTI DCT ASTEL DCT IPRUX DCT NIRGO T108 LANDU

EDDM TAF:
EDDM 031700Z 0318/0424 22005KT 9999 SCT030 BECMG 0409/0411 11005KT BECMG 0419/0421 VRB03KT PROB30 TEMPO 0420/0424 RA

EPWA TAF:
EPWA 032030Z 0321/0421 18004KT CAVOK PROB30 TEMPO 0323/0404 -SHRA SCT030CB PROB40 TEMPO 0404/0410 -RA BKN014 TEMPO 0411/0421 -SHRA BKN025CB PROB40 0412/0416 TSRA BKN014CB
 

Samy Greve

874505
ATD - Prüfer
RG München - Event
RG München - NAV
RG München - Mentor
Warsaw_Munich_shuttle_sommer.png


Willkommen im September! Erster Mittwoch des Monats lädt wieder Shuttle zwischen Warschau und München ein! Ab 1730 Zulu sind beide Flughäfen mit voller ATC Abdeckung für euch da und freuen sich auf euren Besuch!

EDDM-EPWA BIBAG Y133 BEPAS DCT LEGAZ DCT LAGAR DCT OKENO Q277 AGAVA
EPWA-EDDM SOXER N869 TOMTI DCT ASTEL DCT IPRUX DCT NIRGO T108 LANDU

EDDM TAF:
EDDM 010500Z 0106/0212 VRB03KT 0800 FG NSC BECMG 0117/0119 VRB03KT TEMPO

EPWA TAF:
EPWA 010830Z 0109/0209 34012KT 9999 BKN020 TEMPO 0109/0117 34015G25KT PROB40 TEMPO 0111/0115 -SHRA SCT020TCU
 
Oben